createdAt,value
2018-06-30T00:02:18.820Z,47.07
2018-06-30T00:04:51.918Z,52.83
2018-06-30T00:07:21.678Z,45.47
2018-06-30T00:09:50.153Z,44.00
2018-06-30T00:12:18.669Z,41.53
2018-06-30T00:14:47.661Z,48.53
2018-06-30T00:17:16.183Z,46.00
2018-06-30T00:19:44.674Z,47.03
2018-06-30T00:22:13.280Z,44.07
2018-06-30T00:24:41.796Z,53.87
2018-06-30T00:27:16.174Z,45.40
2018-06-30T00:29:44.821Z,45.33
2018-06-30T00:32:13.322Z,63.07
2018-06-30T00:34:41.975Z,46.83
2018-06-30T00:37:10.482Z,49.50
2018-06-30T00:39:38.949Z,53.23
2018-06-30T00:42:07.454Z,44.37
2018-06-30T00:44:36.075Z,47.73
2018-06-30T00:47:04.565Z,45.13
2018-06-30T00:49:33.033Z,49.03
2018-06-30T00:52:01.542Z,53.20
2018-06-30T00:54:30.031Z,54.17
2018-06-30T00:56:58.570Z,44.97
2018-06-30T00:59:27.077Z,53.67
2018-06-30T01:01:55.553Z,46.10
2018-06-30T01:04:24.316Z,53.50
2018-06-30T01:06:52.857Z,58.60
2018-06-30T01:09:21.429Z,52.70
2018-06-30T01:11:50.379Z,54.23
2018-06-30T01:14:18.881Z,47.33
2018-06-30T01:16:47.385Z,53.13
2018-06-30T01:19:15.902Z,56.70
2018-06-30T01:21:44.761Z,52.67
2018-06-30T01:24:13.302Z,47.50
2018-06-30T01:26:41.778Z,52.10
2018-06-30T01:29:10.322Z,53.00
2018-06-30T01:31:38.813Z,59.80
2018-06-30T01:34:07.324Z,49.47
2018-06-30T01:36:35.841Z,50.07
2018-06-30T01:39:06.147Z,52.47
2018-06-30T01:41:34.769Z,53.33
2018-06-30T01:44:03.797Z,51.00
2018-06-30T01:46:32.369Z,65.27
2018-06-30T01:49:00.857Z,43.80
2018-06-30T01:51:29.660Z,56.57
2018-06-30T01:53:58.197Z,49.50
2018-06-30T01:56:26.887Z,43.77
2018-06-30T01:58:55.374Z,46.57
2018-06-30T02:01:23.849Z,44.20
2018-06-30T02:03:52.464Z,50.17
2018-06-30T02:06:21.017Z,57.43
2018-06-30T02:08:49.678Z,52.93
2018-06-30T02:11:18.242Z,47.03
2018-06-30T02:13:46.733Z,56.57
2018-06-30T02:16:15.259Z,49.43
2018-06-30T02:18:43.797Z,52.00
2018-06-30T02:21:12.331Z,45.03
2018-06-30T02:23:40.849Z,47.70
2018-06-30T02:26:09.316Z,58.97
2018-06-30T02:28:37.849Z,46.03
2018-06-30T02:31:06.858Z,54.00
2018-06-30T02:33:35.342Z,51.27
2018-06-30T02:36:03.810Z,49.37
2018-06-30T02:38:32.453Z,47.90
2018-06-30T02:41:00.975Z,46.20
2018-06-30T02:43:29.425Z,45.90
2018-06-30T02:45:57.946Z,42.67
2018-06-30T02:48:26.545Z,44.93
2018-06-30T02:50:55.081Z,43.60
2018-06-30T02:53:23.583Z,43.07
2018-06-30T02:55:52.098Z,39.30
2018-06-30T02:58:20.650Z,45.57
2018-06-30T03:00:49.367Z,48.37
2018-06-30T03:03:18.439Z,37.60
2018-06-30T03:05:46.982Z,38.63
2018-06-30T03:08:15.689Z,39.47
2018-06-30T03:10:44.438Z,37.30
2018-06-30T03:13:13.014Z,30.50
2018-06-30T03:15:41.550Z,37.10
2018-06-30T03:18:10.517Z,42.70
2018-06-30T03:20:39.214Z,44.00
2018-06-30T03:23:08.011Z,38.67
2018-06-30T03:25:36.572Z,39.67
2018-06-30T03:28:05.166Z,36.17
2018-06-30T03:30:33.657Z,36.57
2018-06-30T03:33:02.261Z,36.80
2018-06-30T03:35:30.775Z,40.57
2018-06-30T03:37:59.310Z,35.67
2018-06-30T03:40:27.805Z,40.43
2018-06-30T03:42:56.862Z,31.70
2018-06-30T03:45:25.357Z,35.03
2018-06-30T03:47:53.855Z,30.73
2018-06-30T03:50:22.450Z,38.00
2018-06-30T03:52:51.025Z,32.00
2018-06-30T03:55:19.578Z,28.50
2018-06-30T03:57:48.106Z,29.80
2018-06-30T04:00:16.774Z,30.10
2018-06-30T04:02:45.265Z,27.43
2018-06-30T04:05:13.770Z,32.40
2018-06-30T04:07:42.269Z,25.50
2018-06-30T04:10:10.756Z,27.03
2018-06-30T04:12:39.319Z,18.60
2018-06-30T04:15:07.812Z,24.60
2018-06-30T04:17:36.319Z,26.17
2018-06-30T04:20:04.995Z,21.00
2018-06-30T04:22:33.514Z,20.30
2018-06-30T04:25:01.993Z,19.50
2018-06-30T04:27:30.473Z,19.60
2018-06-30T04:29:58.969Z,14.23
2018-06-30T04:32:27.619Z,14.67
2018-06-30T04:34:56.102Z,18.27
2018-06-30T04:37:24.565Z,22.70
2018-06-30T04:39:53.050Z,16.07
2018-06-30T04:42:21.546Z,20.00
2018-06-30T04:44:50.053Z,13.43
2018-06-30T04:47:18.578Z,12.50
2018-06-30T04:49:47.053Z,19.60
2018-06-30T04:52:15.535Z,23.07
2018-06-30T04:54:44.138Z,15.70
2018-06-30T04:57:12.783Z,20.43
2018-06-30T04:59:41.256Z,13.70
2018-06-30T05:02:09.762Z,14.00
2018-06-30T05:04:38.701Z,11.33
2018-06-30T05:07:07.202Z,15.17
2018-06-30T05:09:35.710Z,13.73
2018-06-30T05:12:04.271Z,12.40
2018-06-30T05:14:32.787Z,12.93
2018-06-30T05:17:01.298Z,12.30
2018-06-30T05:19:29.776Z,10.23
2018-06-30T05:21:58.287Z,12.13
2018-06-30T05:24:26.898Z,10.60
2018-06-30T05:26:55.416Z,9.90
2018-06-30T05:29:23.930Z,10.30
2018-06-30T05:31:52.445Z,11.57
2018-06-30T05:34:20.913Z,12.53
2018-06-30T05:36:49.499Z,11.37
2018-06-30T05:39:18.028Z,12.90
2018-06-30T05:41:46.497Z,9.90
2018-06-30T05:44:14.966Z,7.53
2018-06-30T05:46:43.693Z,11.57
2018-06-30T05:49:12.162Z,6.83
2018-06-30T05:51:40.638Z,7.80
2018-06-30T05:54:09.287Z,17.87
2018-06-30T05:56:37.773Z,6.70
2018-06-30T05:59:06.281Z,7.23
2018-06-30T06:01:34.820Z,9.50
2018-06-30T06:04:03.358Z,7.70
2018-06-30T06:06:31.837Z,5.77
2018-06-30T06:09:00.313Z,9.80
2018-06-30T06:11:28.858Z,7.93
2018-06-30T06:13:57.373Z,6.33
2018-06-30T06:16:25.845Z,7.57
2018-06-30T06:18:54.321Z,5.47
2018-06-30T06:21:22.903Z,7.80
2018-06-30T06:23:51.443Z,5.43
2018-06-30T06:26:19.962Z,4.77
2018-06-30T06:28:48.541Z,8.77
2018-06-30T06:31:17.050Z,6.10
2018-06-30T06:33:45.529Z,5.20
2018-06-30T06:36:14.014Z,4.70
2018-06-30T06:38:42.489Z,6.07
2018-06-30T06:41:10.973Z,11.23
2018-06-30T06:43:39.463Z,4.80
2018-06-30T06:46:08.620Z,6.60
2018-06-30T06:48:37.110Z,3.43
2018-06-30T06:51:05.656Z,6.13
2018-06-30T06:53:34.191Z,4.83
2018-06-30T06:56:02.717Z,3.30
2018-06-30T06:58:31.286Z,2.93
2018-06-30T07:00:59.925Z,4.37
2018-06-30T07:03:28.421Z,2.93
2018-06-30T07:05:56.921Z,5.10
2018-06-30T07:08:25.441Z,3.77
2018-06-30T07:10:53.958Z,2.60
2018-06-30T07:13:23.297Z,4.03
2018-06-30T07:15:52.150Z,3.33
2018-06-30T07:18:20.477Z,5.07
2018-06-30T07:20:49.043Z,2.80
2018-06-30T07:23:17.633Z,2.90
2018-06-30T07:25:46.106Z,3.23
2018-06-30T07:28:14.582Z,2.77
2018-06-30T07:30:43.608Z,3.83
2018-06-30T07:33:12.089Z,6.63
2018-06-30T07:35:40.617Z,1.93
2018-06-30T07:38:09.114Z,3.43
2018-06-30T07:40:37.588Z,5.20
2018-06-30T07:43:06.609Z,4.87
2018-06-30T07:45:35.047Z,1.83
2018-06-30T07:48:03.551Z,2.30
2018-06-30T07:50:32.109Z,2.67
2018-06-30T07:53:00.670Z,2.03
2018-06-30T07:55:29.246Z,2.37
2018-06-30T07:57:57.714Z,1.40
2018-06-30T08:00:26.529Z,1.63
2018-06-30T08:02:55.157Z,2.33
2018-06-30T08:05:23.674Z,2.80
2018-06-30T08:07:52.225Z,7.03
2018-06-30T08:10:21.639Z,1.90
2018-06-30T08:12:50.278Z,6.53
2018-06-30T08:15:18.794Z,1.20
2018-06-30T08:17:47.272Z,5.73
2018-06-30T08:20:15.758Z,1.40
2018-06-30T08:22:44.305Z,1.10
2018-06-30T08:25:12.773Z,2.40
2018-06-30T08:27:41.342Z,1.27
2018-06-30T08:30:09.869Z,1.23
2018-06-30T08:32:38.385Z,1.33
2018-06-30T08:35:06.959Z,1.47
2018-06-30T08:37:35.540Z,25.73
2018-06-30T08:40:04.090Z,1.40
2018-06-30T08:42:32.615Z,8.70
2018-06-30T08:45:01.493Z,1.63
2018-06-30T08:47:30.133Z,1.13
2018-06-30T08:49:58.740Z,2.23
2018-06-30T08:52:27.254Z,1.37
2018-06-30T08:54:56.080Z,1.13
2018-06-30T08:57:24.665Z,1.00
2018-06-30T08:59:53.340Z,2.83
2018-06-30T09:02:21.930Z,1.80
2018-06-30T09:06:19.991Z,0.93
2018-06-30T09:08:48.605Z,1.53
2018-06-30T09:11:17.226Z,1.50
2018-06-30T09:13:45.709Z,1.47
2018-06-30T09:16:14.228Z,2.30
2018-06-30T09:18:43.039Z,4.00
2018-06-30T09:21:11.916Z,6.00
2018-06-30T09:23:40.421Z,1.33
2018-06-30T09:26:08.906Z,1.57
2018-06-30T09:28:37.564Z,2.60
2018-06-30T09:31:06.138Z,1.50
2018-06-30T09:33:34.669Z,4.40
2018-06-30T09:36:03.336Z,1.03
2018-06-30T09:38:32.425Z,0.70
2018-06-30T09:41:01.126Z,1.47
2018-06-30T09:43:29.589Z,3.13
2018-06-30T09:45:58.565Z,4.00
2018-06-30T09:48:27.088Z,4.60
2018-06-30T09:50:55.585Z,3.37
2018-06-30T09:53:24.125Z,3.80
2018-06-30T09:55:52.604Z,4.47
2018-06-30T09:58:21.185Z,4.97
2018-06-30T10:00:50.751Z,0.90
2018-06-30T10:03:19.682Z,3.53
2018-06-30T10:05:48.185Z,6.33
2018-06-30T10:08:16.722Z,1.00
2018-06-30T10:10:45.319Z,1.90
2018-06-30T10:13:13.817Z,1.97
2018-06-30T10:15:42.405Z,0.93
2018-06-30T10:18:11.266Z,5.27
2018-06-30T10:20:39.819Z,0.97
2018-06-30T10:23:08.299Z,3.00
2018-06-30T10:25:36.848Z,2.00
2018-06-30T10:28:05.409Z,4.80
2018-06-30T10:30:33.946Z,1.40
2018-06-30T10:33:02.647Z,2.40
2018-06-30T10:35:31.394Z,1.30
2018-06-30T10:38:00.066Z,4.67
2018-06-30T10:40:28.725Z,0.80
2018-06-30T10:42:57.206Z,0.80
2018-06-30T10:45:25.798Z,11.33
2018-06-30T10:47:54.378Z,2.00
2018-06-30T10:50:22.945Z,11.00
2018-06-30T10:52:51.483Z,6.37
2018-06-30T10:55:19.976Z,0.93
2018-06-30T10:57:48.610Z,0.80
2018-06-30T11:00:17.203Z,1.27
2018-06-30T11:02:45.645Z,1.37
2018-06-30T11:05:14.273Z,4.20
2018-06-30T11:07:42.710Z,0.77
2018-06-30T11:10:11.358Z,0.70
2018-06-30T11:12:40.176Z,0.90
2018-06-30T11:15:09.198Z,2.80
2018-06-30T11:17:37.722Z,3.27
2018-06-30T11:20:06.329Z,15.87
2018-06-30T11:22:34.832Z,1.13
2018-06-30T11:25:03.357Z,2.93
2018-06-30T11:27:31.870Z,9.40
2018-06-30T11:30:00.384Z,9.20
2018-06-30T11:32:28.884Z,0.90
2018-06-30T11:34:57.388Z,11.90
2018-06-30T11:37:25.871Z,0.93
2018-06-30T11:39:55.033Z,1.90
2018-06-30T11:42:23.538Z,2.33
2018-06-30T11:44:52.064Z,1.00
2018-06-30T11:47:20.754Z,1.17
2018-06-30T11:49:49.289Z,7.10
2018-06-30T11:52:18.262Z,1.83
2018-06-30T11:54:46.754Z,1.30
2018-06-30T11:57:15.238Z,6.03
2018-06-30T11:59:43.757Z,1.93
2018-06-30T12:02:12.386Z,1.67
2018-06-30T12:04:40.753Z,1.93
2018-06-30T12:07:09.414Z,0.70
2018-06-30T12:09:37.958Z,4.63
2018-06-30T12:12:06.474Z,2.67
2018-06-30T12:14:34.954Z,0.70
2018-06-30T12:17:03.827Z,2.43
2018-06-30T12:19:32.310Z,3.10
2018-06-30T12:22:00.842Z,4.43
2018-06-30T12:24:29.338Z,11.80
2018-06-30T12:26:57.842Z,3.33
2018-06-30T12:29:26.400Z,8.37
2018-06-30T12:31:54.929Z,8.17
2018-06-30T12:34:23.485Z,0.80
2018-06-30T12:36:52.003Z,4.17
2018-06-30T12:39:20.587Z,4.30
2018-06-30T12:41:49.337Z,0.60
2018-06-30T12:44:17.852Z,1.00
2018-06-30T12:46:46.333Z,4.80
2018-06-30T12:49:14.838Z,1.20
2018-06-30T12:51:43.320Z,2.60
2018-06-30T12:54:11.898Z,0.80
2018-06-30T12:56:40.383Z,2.03
2018-06-30T12:59:08.901Z,5.73
2018-06-30T13:01:37.479Z,1.87
2018-06-30T13:04:06.169Z,1.37
2018-06-30T13:06:34.914Z,4.87
2018-06-30T13:09:03.944Z,3.43
2018-06-30T13:11:32.425Z,1.87
2018-06-30T13:14:00.905Z,1.77
2018-06-30T13:16:29.524Z,0.77
2018-06-30T13:18:57.984Z,1.80
2018-06-30T13:21:26.958Z,1.23
2018-06-30T13:23:55.465Z,2.40
2018-06-30T13:26:23.974Z,1.33
2018-06-30T13:28:52.693Z,3.47
2018-06-30T13:31:21.209Z,1.70
2018-06-30T13:33:49.726Z,1.53
2018-06-30T13:36:18.268Z,10.70
2018-06-30T13:38:46.879Z,4.93
2018-06-30T13:41:15.404Z,1.23
2018-06-30T13:43:43.995Z,1.10
2018-06-30T13:46:12.509Z,3.13
2018-06-30T13:48:41.045Z,3.37
2018-06-30T13:51:09.593Z,1.00
2018-06-30T13:53:38.134Z,2.60
2018-06-30T13:56:07.173Z,16.43
2018-06-30T13:58:35.714Z,3.33
2018-06-30T14:01:04.728Z,2.37
2018-06-30T14:03:33.258Z,2.50
2018-06-30T14:06:01.830Z,5.53
2018-06-30T14:08:30.370Z,1.10
2018-06-30T14:10:58.892Z,2.77
2018-06-30T14:13:27.435Z,1.27
2018-06-30T14:15:55.906Z,0.80
2018-06-30T14:18:24.457Z,1.87
2018-06-30T14:20:53.317Z,1.67
2018-06-30T14:23:21.881Z,2.00
2018-06-30T14:25:50.395Z,3.10
2018-06-30T14:28:18.982Z,0.70
2018-06-30T14:30:47.458Z,0.80
2018-06-30T14:33:15.970Z,1.67
2018-06-30T14:35:44.541Z,4.37
2018-06-30T14:38:13.049Z,0.63
2018-06-30T14:40:41.545Z,0.97
2018-06-30T14:43:10.272Z,1.23
2018-06-30T14:45:38.766Z,0.83
2018-06-30T14:48:07.242Z,6.63
2018-06-30T14:50:35.946Z,1.97
2018-06-30T14:53:04.506Z,1.27
2018-06-30T14:55:33.058Z,1.77
2018-06-30T14:58:01.618Z,1.90
2018-06-30T15:00:30.113Z,2.40
2018-06-30T15:02:58.618Z,2.50
2018-06-30T15:05:27.346Z,3.53
2018-06-30T15:07:55.890Z,2.23
2018-06-30T15:10:24.410Z,2.70
2018-06-30T15:12:52.998Z,2.47
2018-06-30T15:15:21.494Z,1.23
2018-06-30T15:17:50.070Z,1.10
2018-06-30T15:20:18.651Z,3.03
2018-06-30T15:22:47.242Z,1.63
2018-06-30T15:25:15.777Z,2.90
2018-06-30T15:27:44.342Z,0.90
2018-06-30T15:30:12.846Z,1.43
2018-06-30T15:32:41.443Z,1.30
2018-06-30T15:35:09.959Z,10.83
2018-06-30T15:37:38.432Z,2.83
2018-06-30T15:40:07.661Z,1.57
2018-06-30T15:42:36.182Z,8.50
2018-06-30T15:45:05.937Z,3.33
2018-06-30T15:47:34.925Z,1.60
2018-06-30T15:50:03.476Z,3.07
2018-06-30T15:52:32.186Z,2.30
2018-06-30T15:55:00.821Z,2.70
2018-06-30T15:57:29.290Z,3.53
2018-06-30T15:59:57.781Z,7.70
2018-06-30T16:02:26.347Z,1.87
2018-06-30T16:04:54.861Z,1.07
2018-06-30T16:07:23.566Z,5.00
2018-06-30T16:09:52.505Z,3.00
2018-06-30T16:12:21.003Z,1.43
2018-06-30T16:14:49.646Z,3.90
2018-06-30T16:17:18.141Z,2.30
2018-06-30T16:19:46.638Z,6.27
2018-06-30T16:22:15.121Z,1.47
2018-06-30T16:24:43.629Z,0.93
2018-06-30T16:27:12.139Z,2.27
2018-06-30T16:29:40.649Z,1.83
2018-06-30T16:32:09.171Z,1.27
2018-06-30T16:34:37.700Z,5.53
2018-06-30T16:37:06.223Z,1.20
2018-06-30T16:39:34.726Z,4.33
2018-06-30T16:42:03.325Z,1.80
2018-06-30T16:44:32.449Z,4.37
2018-06-30T16:47:00.991Z,3.03
2018-06-30T16:49:29.663Z,2.27
2018-06-30T16:51:58.218Z,2.77
2018-06-30T16:54:26.878Z,3.83
2018-06-30T16:56:55.382Z,1.20
2018-06-30T16:59:23.885Z,2.30
2018-06-30T17:01:52.424Z,3.80
2018-06-30T17:04:21.273Z,4.53
2018-06-30T17:06:49.894Z,1.40
2018-06-30T17:09:18.388Z,2.63
2018-06-30T17:11:46.910Z,1.80
2018-06-30T17:14:15.428Z,1.77
2018-06-30T17:16:43.914Z,2.20
2018-06-30T17:19:12.431Z,1.67
2018-06-30T17:21:40.918Z,1.30
2018-06-30T17:24:09.531Z,2.10
2018-06-30T17:26:38.042Z,1.47
2018-06-30T17:29:06.574Z,1.67
2018-06-30T17:31:35.082Z,2.17
2018-06-30T17:34:03.591Z,5.60
2018-06-30T17:36:32.125Z,2.40
2018-06-30T17:39:00.605Z,1.13
2018-06-30T17:41:29.481Z,2.23
2018-06-30T17:43:57.953Z,0.70
2018-06-30T17:46:26.480Z,1.50
2018-06-30T17:48:55.184Z,5.60
2018-06-30T17:51:23.742Z,3.00
2018-06-30T17:53:52.358Z,2.10
2018-06-30T17:56:20.865Z,2.53
2018-06-30T17:58:49.775Z,1.63
2018-06-30T18:01:18.289Z,3.90
2018-06-30T18:03:46.805Z,1.87
2018-06-30T18:06:15.392Z,2.23
2018-06-30T18:08:43.885Z,1.23
2018-06-30T18:11:12.354Z,1.57
2018-06-30T18:13:41.356Z,4.47
2018-06-30T18:16:09.887Z,3.53
2018-06-30T18:18:38.567Z,1.20
2018-06-30T18:21:07.122Z,1.20
2018-06-30T18:23:35.671Z,2.47
2018-06-30T18:26:04.206Z,2.80
2018-06-30T18:28:32.763Z,1.50
2018-06-30T18:31:01.285Z,5.23
2018-06-30T18:33:29.902Z,1.60
2018-06-30T18:35:58.421Z,0.90
2018-06-30T18:38:26.901Z,6.17
2018-06-30T18:40:55.526Z,6.03
2018-06-30T18:43:24.036Z,4.93
2018-06-30T18:45:52.515Z,4.80
2018-06-30T18:48:21.544Z,3.17
2018-06-30T18:50:50.022Z,1.63
2018-06-30T18:53:18.496Z,3.53
2018-06-30T18:55:46.989Z,4.50
2018-06-30T18:58:15.714Z,2.20
2018-06-30T19:00:44.189Z,1.03
2018-06-30T19:03:12.707Z,2.70
2018-06-30T19:05:41.585Z,6.47
2018-06-30T19:08:10.144Z,0.70
2018-06-30T19:10:38.969Z,3.17
2018-06-30T19:13:07.529Z,1.90
2018-06-30T19:15:36.041Z,6.60
2018-06-30T19:18:04.580Z,2.83
2018-06-30T19:20:33.123Z,2.90
2018-06-30T19:23:01.593Z,3.70
2018-06-30T19:25:30.578Z,8.03
2018-06-30T19:27:59.048Z,0.80
2018-06-30T19:30:27.713Z,2.00
2018-06-30T19:32:56.328Z,1.30
2018-06-30T19:35:30.257Z,3.33
2018-06-30T19:37:58.781Z,1.10
2018-06-30T19:40:27.774Z,3.40
2018-06-30T19:42:56.238Z,1.40
2018-06-30T19:45:25.179Z,0.70
2018-06-30T19:47:53.889Z,1.77
2018-06-30T19:50:22.394Z,2.80
2018-06-30T19:52:51.005Z,3.50
2018-06-30T19:55:20.107Z,1.47
2018-06-30T19:57:48.717Z,0.70
2018-06-30T20:00:17.233Z,2.40
2018-06-30T20:02:45.746Z,2.03
2018-06-30T20:05:14.295Z,2.33
2018-06-30T20:07:48.222Z,4.40
2018-06-30T20:10:16.825Z,3.47
2018-06-30T20:12:45.565Z,0.90
2018-06-30T20:15:14.355Z,1.97
2018-06-30T20:17:42.997Z,0.90
2018-06-30T20:20:12.026Z,1.10
2018-06-30T20:22:40.501Z,5.20
2018-06-30T20:25:09.193Z,2.70
2018-06-30T20:27:37.687Z,4.80
2018-06-30T20:30:06.801Z,5.67
2018-06-30T20:32:35.323Z,1.43
2018-06-30T20:35:03.872Z,1.73
2018-06-30T20:37:32.426Z,3.30
2018-06-30T20:40:00.941Z,1.70
2018-06-30T20:42:29.459Z,1.73
2018-06-30T20:44:58.072Z,1.67
2018-06-30T20:47:26.619Z,1.60
2018-06-30T20:49:55.134Z,1.47
2018-06-30T20:52:23.710Z,2.33
2018-06-30T20:54:52.169Z,2.23
2018-06-30T20:57:20.865Z,2.47
2018-06-30T20:59:49.460Z,2.30
2018-06-30T21:02:17.973Z,2.00
2018-06-30T21:04:46.861Z,5.13
2018-06-30T21:07:15.365Z,3.30
2018-06-30T21:09:43.860Z,3.50
2018-06-30T21:12:12.394Z,2.10
2018-06-30T21:14:40.929Z,3.03
2018-06-30T21:17:09.465Z,7.77
2018-06-30T21:19:38.433Z,9.47
2018-06-30T21:22:07.368Z,7.70
2018-06-30T21:24:36.256Z,1.30
2018-06-30T21:27:05.275Z,5.03
2018-06-30T21:29:33.831Z,2.90
2018-06-30T21:32:02.493Z,3.30
2018-06-30T21:34:31.457Z,2.37
2018-06-30T21:37:01.796Z,3.73
2018-06-30T21:39:30.301Z,1.57
2018-06-30T21:41:58.821Z,1.37
2018-06-30T21:44:27.729Z,6.10
2018-06-30T21:46:56.245Z,2.60
2018-06-30T21:49:24.729Z,6.53
2018-06-30T21:51:53.402Z,2.70
2018-06-30T21:54:21.929Z,1.87
2018-06-30T21:56:50.776Z,4.90
2018-06-30T21:59:19.438Z,3.23
2018-06-30T22:01:47.991Z,2.13
2018-06-30T22:04:16.549Z,5.40
2018-06-30T22:06:45.042Z,1.53
2018-06-30T22:09:13.717Z,2.20
2018-06-30T22:11:42.181Z,2.03
2018-06-30T22:14:10.673Z,3.40
2018-06-30T22:16:39.242Z,3.23
2018-06-30T22:19:07.870Z,3.60
2018-06-30T22:21:36.368Z,3.27
2018-06-30T22:24:04.917Z,3.93
2018-06-30T22:26:33.562Z,3.40
2018-06-30T22:29:03.117Z,3.93
2018-06-30T22:31:31.709Z,2.37
2018-06-30T22:34:00.259Z,3.13
2018-06-30T22:36:28.761Z,2.00
2018-06-30T22:38:57.363Z,4.23
2018-06-30T22:41:25.910Z,5.90
2018-06-30T22:43:54.385Z,3.47
2018-06-30T22:46:23.264Z,5.87
2018-06-30T22:48:51.895Z,1.80
2018-06-30T22:51:20.405Z,1.50
2018-06-30T22:53:48.986Z,1.10
2018-06-30T22:56:17.489Z,3.73
2018-06-30T22:58:45.997Z,3.70
2018-06-30T23:01:14.529Z,1.13
2018-06-30T23:03:43.063Z,4.50
2018-06-30T23:06:11.557Z,1.40
2018-06-30T23:08:45.949Z,9.57
2018-06-30T23:11:14.449Z,1.67
2018-06-30T23:13:42.919Z,1.83
2018-06-30T23:16:11.493Z,1.47
2018-06-30T23:18:40.862Z,3.43
2018-06-30T23:21:09.329Z,1.40
2018-06-30T23:23:37.805Z,2.33
2018-06-30T23:26:06.445Z,1.10
2018-06-30T23:28:34.941Z,1.77
2018-06-30T23:31:03.513Z,9.80
2018-06-30T23:33:32.234Z,2.83
2018-06-30T23:36:00.789Z,8.03
2018-06-30T23:38:29.349Z,2.80
2018-06-30T23:40:57.877Z,2.97
2018-06-30T23:43:26.495Z,2.50
2018-06-30T23:45:55.353Z,3.27
2018-06-30T23:48:23.930Z,1.10
2018-06-30T23:50:52.421Z,5.90
2018-06-30T23:53:20.929Z,1.57
2018-06-30T23:55:49.550Z,2.10
2018-06-30T23:58:18.054Z,4.87
